createdAt,value
2022-10-13T00:05:16.209Z,6.25
2022-10-13T00:08:21.090Z,7.25
2022-10-13T00:11:25.956Z,6.20
2022-10-13T00:14:28.175Z,6.30
2022-10-13T00:17:30.339Z,7.20
2022-10-13T00:20:32.565Z,7.25
2022-10-13T00:23:35.210Z,5.57
2022-10-13T00:26:37.441Z,7.28
2022-10-13T00:29:39.586Z,5.75
2022-10-13T00:32:41.800Z,6.40
2022-10-13T00:35:46.509Z,6.82
2022-10-13T00:38:48.849Z,6.05
2022-10-13T00:41:51.159Z,6.10
2022-10-13T00:45:05.376Z,6.32
2022-10-13T00:48:07.630Z,5.47
2022-10-13T00:51:10.981Z,6.07
2022-10-13T00:54:22.835Z,6.32
2022-10-13T00:57:25.060Z,5.93
2022-10-13T01:00:27.711Z,5.43
2022-10-13T01:03:30.229Z,4.50
2022-10-13T01:06:32.976Z,5.30
2022-10-13T01:09:37.939Z,4.82
2022-10-13T01:13:08.305Z,5.15
2022-10-13T01:16:23.658Z,5.82
2022-10-13T01:19:54.461Z,4.50
2022-10-13T01:23:14.706Z,4.80
2022-10-13T01:26:22.845Z,4.43
2022-10-13T01:30:13.489Z,5.30
2022-10-13T01:33:22.461Z,6.43
2022-10-13T01:36:33.242Z,6.32
2022-10-13T01:39:45.306Z,6.47
2022-10-13T01:43:02.545Z,5.15
2022-10-13T01:46:14.459Z,5.85
2022-10-13T01:49:17.776Z,5.37
2022-10-13T01:52:22.239Z,5.90
2022-10-13T01:55:24.429Z,5.97
2022-10-13T01:58:32.412Z,5.80
2022-10-13T02:01:37.358Z,6.35
2022-10-13T02:04:54.044Z,4.78
2022-10-13T02:08:03.533Z,4.95
2022-10-13T02:11:16.062Z,4.87
2022-10-13T02:14:29.983Z,4.72
2022-10-13T02:17:32.263Z,4.62
2022-10-13T02:20:35.189Z,5.57
2022-10-13T02:23:37.537Z,6.35
2022-10-13T02:26:41.301Z,5.62
2022-10-13T02:29:55.642Z,6.07
2022-10-13T02:32:57.856Z,5.32
2022-10-13T02:36:00.065Z,5.47
2022-10-13T02:39:02.299Z,5.50
2022-10-13T02:42:04.541Z,5.32
2022-10-13T02:45:07.594Z,5.00
2022-10-13T02:48:09.878Z,5.70
2022-10-13T02:51:12.036Z,5.82
2022-10-13T02:54:14.206Z,5.62
2022-10-13T02:57:17.900Z,5.25
2022-10-13T03:00:20.184Z,5.60
2022-10-13T03:03:22.401Z,5.18
2022-10-13T03:06:24.670Z,4.90
2022-10-13T03:09:26.862Z,4.85
2022-10-13T03:12:29.033Z,5.32
2022-10-13T03:15:31.225Z,4.90
2022-10-13T03:18:33.648Z,5.35
2022-10-13T03:21:37.737Z,4.18
2022-10-13T03:24:40.013Z,5.07
2022-10-13T03:27:42.199Z,5.05
2022-10-13T03:30:44.373Z,4.80
2022-10-13T03:33:46.520Z,4.68
2022-10-13T03:36:48.727Z,5.60
2022-10-13T03:39:50.894Z,5.32
2022-10-13T03:42:53.034Z,4.93
2022-10-13T03:45:57.112Z,5.25
2022-10-13T03:48:59.587Z,4.87
2022-10-13T03:52:01.875Z,4.62
2022-10-13T03:55:04.718Z,4.37
2022-10-13T03:58:06.904Z,4.40
2022-10-13T04:01:09.456Z,4.00
2022-10-13T04:04:12.499Z,5.05
2022-10-13T04:07:14.655Z,4.05
2022-10-13T04:10:16.987Z,4.20
2022-10-13T04:13:19.140Z,5.20
2022-10-13T04:16:24.068Z,5.05
2022-10-13T04:19:26.350Z,5.72
2022-10-13T04:22:28.540Z,5.75
2022-10-13T04:25:30.710Z,5.75
2022-10-13T04:28:35.910Z,5.97
2022-10-13T04:31:39.677Z,4.85
2022-10-13T04:34:41.880Z,4.75
2022-10-13T04:37:45.225Z,4.82
2022-10-13T04:40:47.487Z,4.68
2022-10-13T04:43:50.826Z,4.28
2022-10-13T04:46:53.033Z,4.62
2022-10-13T04:49:55.242Z,3.83
2022-10-13T04:52:57.420Z,4.55
2022-10-13T04:56:05.457Z,3.72
2022-10-13T04:59:07.619Z,4.50
2022-10-13T05:02:10.575Z,4.87
2022-10-13T05:05:12.746Z,5.28
2022-10-13T05:08:14.902Z,4.43
2022-10-13T05:11:17.674Z,4.80
2022-10-13T05:14:19.792Z,4.65
2022-10-13T05:17:21.993Z,5.37
2022-10-13T05:20:24.150Z,5.07
2022-10-13T05:23:26.339Z,5.65
2022-10-13T05:26:31.963Z,4.87
2022-10-13T05:29:34.213Z,5.00
2022-10-13T05:32:36.412Z,5.15
2022-10-13T05:35:38.556Z,5.10
2022-10-13T05:38:40.851Z,5.37
2022-10-13T05:41:43.059Z,4.97
2022-10-13T05:44:45.269Z,6.40
2022-10-13T05:47:47.483Z,5.40
2022-10-13T05:50:49.831Z,4.87
2022-10-13T05:54:08.759Z,6.03
2022-10-13T05:57:14.880Z,5.70
2022-10-13T06:00:19.002Z,5.78
2022-10-13T06:03:22.660Z,6.25
2022-10-13T06:06:31.254Z,5.30
2022-10-13T06:09:35.735Z,5.47
2022-10-13T06:12:38.422Z,5.85
2022-10-13T06:15:40.610Z,4.85
2022-10-13T06:18:42.757Z,5.30
2022-10-13T06:21:44.909Z,4.78
2022-10-13T06:24:47.081Z,5.07
2022-10-13T06:27:49.365Z,5.93
2022-10-13T06:30:56.724Z,5.45
2022-10-13T06:33:59.564Z,5.28
2022-10-13T06:37:01.749Z,6.55
2022-10-13T06:40:05.538Z,6.20
2022-10-13T06:43:07.807Z,5.47
2022-10-13T06:46:10.182Z,5.05
2022-10-13T06:49:12.359Z,5.90
2022-10-13T06:52:14.657Z,4.53
2022-10-13T06:55:17.032Z,4.32
2022-10-13T06:58:19.192Z,5.40
2022-10-13T07:01:21.702Z,4.22
2022-10-13T07:04:24.091Z,4.30
2022-10-13T07:07:26.535Z,5.07
2022-10-13T07:10:28.783Z,5.18
2022-10-13T07:13:33.583Z,4.68
2022-10-13T07:16:38.606Z,4.32
2022-10-13T07:19:41.387Z,4.70
2022-10-13T07:22:45.170Z,4.55
2022-10-13T07:25:47.338Z,4.00
2022-10-13T07:28:49.655Z,4.50
2022-10-13T07:31:51.902Z,4.12
2022-10-13T07:34:54.101Z,4.50
2022-10-13T07:37:56.349Z,4.90
2022-10-13T07:41:02.723Z,4.00
2022-10-13T07:44:04.990Z,3.92
2022-10-13T07:47:07.175Z,4.05
2022-10-13T07:50:10.535Z,4.72
2022-10-13T07:53:12.722Z,4.28
2022-10-13T07:56:15.512Z,4.35
2022-10-13T07:59:17.689Z,4.12
2022-10-13T08:02:20.635Z,4.50
2022-10-13T08:05:23.293Z,3.95
2022-10-13T08:08:25.461Z,5.28
2022-10-13T08:11:28.064Z,4.15
2022-10-13T08:14:31.188Z,3.87
2022-10-13T08:17:33.975Z,3.85
2022-10-13T08:20:43.368Z,3.33
2022-10-13T08:23:47.022Z,3.85
2022-10-13T08:26:50.401Z,3.47
2022-10-13T08:29:54.716Z,3.37
2022-10-13T08:32:56.921Z,3.95
2022-10-13T08:35:59.153Z,4.15
2022-10-13T08:39:01.357Z,2.97
2022-10-13T08:42:03.612Z,3.95
2022-10-13T08:48:31.993Z,2.85
2022-10-13T08:51:34.417Z,2.97
2022-10-13T08:54:36.579Z,3.08
2022-10-13T08:57:38.735Z,3.05
2022-10-13T09:00:41.778Z,2.67
2022-10-13T09:03:45.373Z,3.42
2022-10-13T09:06:51.551Z,3.78
2022-10-13T09:09:54.787Z,2.72
2022-10-13T09:12:58.781Z,3.33
2022-10-13T09:16:01.095Z,3.40
2022-10-13T09:19:12.797Z,3.28
2022-10-13T09:22:26.603Z,3.08
2022-10-13T09:25:29.705Z,3.20
2022-10-13T09:28:32.902Z,3.50
2022-10-13T09:31:35.551Z,3.33
2022-10-13T09:34:37.875Z,3.33
2022-10-13T09:37:40.086Z,2.92
2022-10-13T09:43:46.119Z,3.08
2022-10-13T09:46:59.851Z,3.50
2022-10-13T09:50:16.446Z,3.60
2022-10-13T09:53:32.235Z,3.37
2022-10-13T09:56:42.529Z,3.10
2022-10-13T09:59:51.483Z,3.22
2022-10-13T10:03:00.938Z,3.95
2022-10-13T10:06:08.027Z,3.78
2022-10-13T10:09:25.858Z,4.68
2022-10-13T10:12:30.470Z,3.22
2022-10-13T10:15:55.902Z,3.80
2022-10-13T10:19:23.171Z,3.75
2022-10-13T10:22:36.114Z,3.67
2022-10-13T10:25:42.960Z,4.15
2022-10-13T10:29:02.647Z,3.85
2022-10-13T10:32:21.739Z,4.43
2022-10-13T10:35:48.202Z,4.90
2022-10-13T10:38:55.439Z,4.15
2022-10-13T10:42:19.741Z,4.45
2022-10-13T10:45:25.942Z,4.00
2022-10-13T10:48:38.529Z,3.70
2022-10-13T10:51:40.801Z,4.53
2022-10-13T10:54:51.894Z,5.07
2022-10-13T10:58:06.387Z,4.22
2022-10-13T11:01:11.611Z,3.62
2022-10-13T11:04:33.463Z,3.90
2022-10-13T11:07:38.567Z,3.83
2022-10-13T11:10:40.736Z,3.90
2022-10-13T11:14:01.249Z,4.35
2022-10-13T11:17:14.365Z,3.63
2022-10-13T11:20:22.327Z,3.42
2022-10-13T11:23:24.410Z,3.60
2022-10-13T11:26:26.579Z,3.25
2022-10-13T11:29:54.677Z,3.47
2022-10-13T11:32:56.992Z,3.35
2022-10-13T11:36:39.514Z,3.42
2022-10-13T11:39:55.688Z,3.40
2022-10-13T11:43:08.482Z,3.60
2022-10-13T11:46:23.111Z,3.40
2022-10-13T11:49:53.651Z,4.15
2022-10-13T11:53:32.447Z,3.67
2022-10-13T11:56:48.237Z,3.40
2022-10-13T11:59:55.430Z,4.03
2022-10-13T12:02:57.939Z,4.00
2022-10-13T12:06:23.413Z,3.50
2022-10-13T12:09:25.744Z,4.18
2022-10-13T12:12:27.942Z,3.33
2022-10-13T12:15:33.989Z,4.25
2022-10-13T12:18:39.090Z,4.50
2022-10-13T12:21:51.882Z,4.65
2022-10-13T12:25:17.808Z,3.80
2022-10-13T12:28:20.185Z,4.18
2022-10-13T12:31:30.762Z,4.37
2022-10-13T12:34:35.873Z,3.87
2022-10-13T12:37:38.402Z,3.35
2022-10-13T12:40:40.702Z,4.40
2022-10-13T12:43:43.360Z,3.92
2022-10-13T12:46:48.053Z,4.05
2022-10-13T12:49:50.230Z,4.47
2022-10-13T12:52:53.853Z,3.90
2022-10-13T12:56:01.233Z,4.18
2022-10-13T12:59:03.894Z,4.32
2022-10-13T13:02:20.234Z,4.00
2022-10-13T13:05:35.797Z,4.40
2022-10-13T13:08:38.038Z,4.60
2022-10-13T13:11:41.654Z,4.75
2022-10-13T13:14:45.322Z,4.78
2022-10-13T13:18:02.789Z,4.55
2022-10-13T13:21:06.742Z,4.82
2022-10-13T13:24:21.861Z,4.20
2022-10-13T13:27:37.605Z,4.45
2022-10-13T13:30:39.923Z,4.80
2022-10-13T13:33:42.228Z,4.30
2022-10-13T13:36:44.404Z,4.12
2022-10-13T13:39:46.583Z,4.55
2022-10-13T13:42:48.940Z,4.22
2022-10-13T13:45:51.192Z,5.28
2022-10-13T13:48:53.562Z,4.18
2022-10-13T13:51:55.766Z,4.80
2022-10-13T13:54:58.024Z,5.05
2022-10-13T13:58:00.270Z,5.15
2022-10-13T14:01:02.437Z,4.80
2022-10-13T14:04:04.824Z,4.60
2022-10-13T14:07:07.461Z,4.35
2022-10-13T14:10:10.334Z,4.53
2022-10-13T14:13:12.569Z,4.87
2022-10-13T14:16:16.920Z,4.62
2022-10-13T14:19:19.119Z,4.65
2022-10-13T14:22:22.613Z,4.85
2022-10-13T14:25:25.142Z,4.50
2022-10-13T14:28:27.468Z,4.97
2022-10-13T14:31:30.866Z,4.70
2022-10-13T14:34:33.680Z,5.93
2022-10-13T14:37:36.239Z,5.32
2022-10-13T14:40:42.169Z,4.87
2022-10-13T14:43:44.456Z,4.90
2022-10-13T14:46:46.627Z,5.37
2022-10-13T14:49:48.821Z,5.30
2022-10-13T14:52:50.966Z,6.47
2022-10-13T14:55:53.437Z,5.85
2022-10-13T14:58:57.801Z,5.65
2022-10-13T15:02:00.946Z,6.30
2022-10-13T15:05:03.743Z,5.22
2022-10-13T15:08:06.030Z,6.15
2022-10-13T15:11:08.583Z,6.22
2022-10-13T15:14:10.879Z,5.68
2022-10-13T15:17:13.023Z,6.25
2022-10-13T15:20:15.314Z,6.15
2022-10-13T15:23:17.475Z,5.80
2022-10-13T15:26:20.061Z,6.07
2022-10-13T15:29:22.315Z,5.30
2022-10-13T15:32:25.039Z,6.03
2022-10-13T15:35:31.235Z,6.68
2022-10-13T15:38:33.511Z,6.37
2022-10-13T15:41:35.686Z,6.37
2022-10-13T15:45:08.272Z,6.00
2022-10-13T15:48:00.546Z,7.22
2022-10-13T15:51:09.503Z,6.90
2022-10-13T15:54:11.711Z,6.12
2022-10-13T15:57:14.609Z,6.93
2022-10-13T16:00:17.191Z,6.68
2022-10-13T16:03:20.721Z,6.82
2022-10-13T16:06:23.425Z,9.65
2022-10-13T16:09:25.838Z,7.28
2022-10-13T16:12:28.697Z,7.50
2022-10-13T16:15:31.665Z,7.40
2022-10-13T16:18:36.662Z,9.73
2022-10-13T16:21:38.855Z,11.00
2022-10-13T16:24:41.085Z,12.57
2022-10-13T16:27:44.697Z,8.45
2022-10-13T16:30:47.091Z,7.35
2022-10-13T16:33:49.279Z,8.95
2022-10-13T16:36:51.423Z,9.10
2022-10-13T16:39:53.608Z,9.00
2022-10-13T16:42:55.843Z,9.50
2022-10-13T16:46:00.372Z,10.68
2022-10-13T16:49:02.781Z,16.42
2022-10-13T16:52:04.993Z,17.00
2022-10-13T16:55:08.161Z,15.25
2022-10-13T16:58:10.588Z,12.63
2022-10-13T17:01:13.555Z,12.65
2022-10-13T17:04:19.813Z,12.23
2022-10-13T17:07:24.330Z,11.07
2022-10-13T17:10:26.594Z,12.43
2022-10-13T17:13:28.918Z,11.70
2022-10-13T17:16:32.037Z,11.65
2022-10-13T17:19:34.385Z,11.98
2022-10-13T17:22:36.593Z,14.07
2022-10-13T17:25:38.792Z,14.70
2022-10-13T17:28:42.046Z,13.07
2022-10-13T17:31:44.312Z,13.50
2022-10-13T17:34:46.532Z,13.62
2022-10-13T17:37:49.825Z,12.65
2022-10-13T17:40:56.043Z,13.05
2022-10-13T17:44:01.061Z,13.25
2022-10-13T17:47:03.303Z,13.60
2022-10-13T17:50:05.914Z,12.75
2022-10-13T17:53:08.150Z,14.10
2022-10-13T17:56:15.894Z,12.52
2022-10-13T17:59:18.446Z,12.40
2022-10-13T18:02:21.735Z,12.05
2022-10-13T18:05:23.951Z,12.82
2022-10-13T18:08:26.156Z,13.40
2022-10-13T18:11:29.109Z,12.88
2022-10-13T18:14:31.370Z,11.25
2022-10-13T18:17:33.556Z,11.40
2022-10-13T18:20:38.500Z,10.10
2022-10-13T18:23:40.926Z,11.07
2022-10-13T18:26:43.112Z,11.82
2022-10-13T18:29:45.397Z,16.12
2022-10-13T18:32:47.629Z,33.28
2022-10-13T18:35:50.024Z,41.33
2022-10-13T18:38:53.636Z,21.52
2022-10-13T18:41:57.391Z,11.35
2022-10-13T18:44:59.631Z,9.98
2022-10-13T18:48:01.964Z,10.00
2022-10-13T18:51:12.122Z,11.05
2022-10-13T18:54:14.280Z,13.38
2022-10-13T18:57:16.874Z,15.65
2022-10-13T19:00:19.074Z,14.35
2022-10-13T19:03:21.264Z,13.75
2022-10-13T19:06:26.913Z,12.02
2022-10-13T19:09:30.263Z,14.95
2022-10-13T19:12:32.493Z,11.85
2022-10-13T19:15:34.665Z,11.25
2022-10-13T19:18:37.673Z,10.75
2022-10-13T19:21:40.061Z,9.38
2022-10-13T19:24:42.271Z,10.40
2022-10-13T19:27:44.875Z,10.65
2022-10-13T19:30:47.289Z,10.88
2022-10-13T19:33:50.284Z,10.75
2022-10-13T19:36:58.083Z,12.05
2022-10-13T19:40:00.314Z,14.70
2022-10-13T19:43:03.346Z,15.13
2022-10-13T19:46:07.185Z,12.25
2022-10-13T19:49:10.038Z,10.20
2022-10-13T19:52:12.506Z,10.63
2022-10-13T19:55:14.923Z,13.73
2022-10-13T19:58:17.259Z,14.20
2022-10-13T20:01:19.991Z,10.95
2022-10-13T20:04:22.772Z,13.82
2022-10-13T20:07:25.091Z,13.73
2022-10-13T20:10:27.262Z,12.50
2022-10-13T20:13:29.430Z,10.57
2022-10-13T20:16:32.150Z,11.18
2022-10-13T20:19:34.401Z,10.48
2022-10-13T20:22:36.616Z,10.38
2022-10-13T20:25:38.886Z,9.68
2022-10-13T20:28:43.473Z,10.07
2022-10-13T20:31:45.812Z,9.75
2022-10-13T20:34:48.022Z,9.32
2022-10-13T20:37:50.204Z,9.65
2022-10-13T20:40:52.366Z,9.35
2022-10-13T20:43:56.351Z,9.38
2022-10-13T20:46:58.524Z,9.23
2022-10-13T20:50:00.733Z,9.77
2022-10-13T20:53:03.428Z,9.85
2022-10-13T20:56:06.587Z,9.68
2022-10-13T20:59:11.259Z,10.63
2022-10-13T21:02:13.661Z,9.38
2022-10-13T21:05:16.121Z,9.88
2022-10-13T21:08:18.839Z,9.60
2022-10-13T21:11:22.906Z,9.35
2022-10-13T21:14:25.055Z,9.25
2022-10-13T21:17:29.611Z,10.20
2022-10-13T21:20:33.049Z,9.93
2022-10-13T21:23:36.221Z,9.60
2022-10-13T21:26:41.044Z,8.80
2022-10-13T21:29:43.227Z,9.75
2022-10-13T21:32:45.358Z,10.35
2022-10-13T21:35:47.534Z,9.50
2022-10-13T21:38:55.368Z,11.68
2022-10-13T21:41:57.551Z,10.57
2022-10-13T21:45:00.251Z,13.82
2022-10-13T21:48:02.398Z,14.45
2022-10-13T21:51:32.667Z,14.07
2022-10-13T21:54:34.771Z,15.90
2022-10-13T21:57:37.143Z,19.20
2022-10-13T22:00:39.482Z,18.75
2022-10-13T22:03:41.846Z,15.10
2022-10-13T22:06:44.456Z,14.85
2022-10-13T22:09:46.637Z,14.68
2022-10-13T22:12:48.929Z,12.43
2022-10-13T22:15:51.052Z,12.88
2022-10-13T22:18:55.014Z,11.05
2022-10-13T22:21:57.156Z,11.45
2022-10-13T22:24:59.451Z,11.12
2022-10-13T22:28:01.612Z,11.32
2022-10-13T22:31:08.887Z,10.68
2022-10-13T22:34:12.976Z,10.15
2022-10-13T22:37:15.230Z,10.63
2022-10-13T22:40:17.441Z,9.65
2022-10-13T22:43:19.591Z,11.52
2022-10-13T22:46:24.866Z,9.52
2022-10-13T22:49:27.112Z,10.70
2022-10-13T22:52:29.359Z,10.43
2022-10-13T22:55:31.511Z,11.45
2022-10-13T22:58:34.037Z,10.25
2022-10-13T23:01:36.664Z,11.52
2022-10-13T23:04:38.990Z,12.25
2022-10-13T23:07:41.177Z,11.00
2022-10-13T23:10:43.469Z,10.93
2022-10-13T23:13:46.633Z,10.98
2022-10-13T23:16:48.802Z,9.60
2022-10-13T23:19:50.952Z,10.27
2022-10-13T23:22:53.117Z,9.30
2022-10-13T23:25:55.315Z,9.48
2022-10-13T23:28:58.579Z,10.00
2022-10-13T23:32:00.766Z,8.60
2022-10-13T23:35:02.959Z,9.52
2022-10-13T23:38:05.210Z,8.85
2022-10-13T23:41:09.895Z,9.88
2022-10-13T23:44:12.059Z,8.02
2022-10-13T23:47:14.264Z,8.45
2022-10-13T23:50:16.462Z,8.43
2022-10-13T23:53:18.703Z,8.73
2022-10-13T23:56:21.011Z,8.60
2022-10-13T23:59:23.398Z,8.23
